Time;durP1;ratioP1;P1;durP2;ratioP2;P2;SDS_P1;SDS_P2;PMS_P1;PMS_P2;Temp;Humidity;BMP_temperature;BMP_pressure;BME280_temperature;BME280_humidity;BME280_pressure;Samples;Min_cycle;Max_cycle;Signal;HPM_P1;HPM_P2
2022/08/20 00:01:06;;;;;;;7.78;3.15;;;;;;;;;;4393568;32;20077;-66
2022/08/20 00:03:37;;;;;;;4.75;2.97;;;;;;;;;;4406300;32;20069;-66
2022/08/20 00:06:11;;;;;;;4.82;2.62;;;;;;;;;;4406310;32;20512;-67
2022/08/20 00:08:39;;;;;;;5.10;2.85;;;;;;;;;;4393885;32;20124;-65
2022/08/20 00:11:08;;;;;;;5.93;3.20;;;;;;;;;;4406273;32;20164;-66
2022/08/20 00:13:57;;;;;;;7.30;3.20;;;;;;;;;;4393566;32;20089;-66
2022/08/20 00:16:25;;;;;;;6.62;2.90;;;;;;;;;;4406020;32;20553;-66
2022/08/20 00:18:52;;;;;;;6.00;3.10;;;;;;;;;;4407482;32;20073;-68
2022/08/20 00:21:20;;;;;;;6.07;3.00;;;;;;;;;;4407534;32;20081;-67
2022/08/20 00:23:49;;;;;;;6.45;2.83;;;;;;;;;;4393372;32;20073;-67
2022/08/20 00:26:16;;;;;;;6.10;2.75;;;;;;;;;;4406512;32;20069;-66
2022/08/20 00:28:43;;;;;;;6.65;3.50;;;;;;;;;;4393340;32;20176;-67
2022/08/20 00:31:12;;;;;;;7.62;3.17;;;;;;;;;;4393253;32;20081;-66
2022/08/20 00:33:39;;;;;;;9.00;4.03;;;;;;;;;;4393310;32;20096;-66
2022/08/20 00:36:08;;;;;;;7.10;3.10;;;;;;;;;;4406138;32;20072;-67
2022/08/20 00:38:36;;;;;;;3.87;2.80;;;;;;;;;;4407075;32;20084;-67
2022/08/20 00:41:05;;;;;;;5.87;2.87;;;;;;;;;;4416788;32;20616;-68
2022/08/20 00:43:39;;;;;;;7.70;3.08;;;;;;;;;;4408198;32;20085;-67
2022/08/20 00:46:26;;;;;;;5.93;2.90;;;;;;;;;;4405924;32;20093;-67
2022/08/20 00:48:55;;;;;;;5.93;3.05;;;;;;;;;;4393113;32;20091;-67
2022/08/20 00:51:33;;;;;;;8.55;3.12;;;;;;;;;;4405094;32;20188;-67
2022/08/20 00:54:32;;;;;;;6.30;3.20;;;;;;;;;;4407321;32;20074;-67
2022/08/20 00:57:02;;;;;;;5.37;3.30;;;;;;;;;;4383152;32;20089;-67
2022/08/20 00:59:32;;;;;;;6.00;3.00;;;;;;;;;;4406420;32;20085;-67
2022/08/20 01:02:00;;;;;;;5.90;3.40;;;;;;;;;;4393187;32;20157;-67
2022/08/20 01:04:30;;;;;;;6.87;3.17;;;;;;;;;;4405678;32;20077;-66
2022/08/20 01:06:57;;;;;;;7.50;3.47;;;;;;;;;;4380540;32;20157;-67
2022/08/20 01:09:24;;;;;;;5.90;3.37;;;;;;;;;;4405291;32;20176;-66
2022/08/20 01:11:51;;;;;;;8.70;3.97;;;;;;;;;;4392467;32;20069;-66
2022/08/20 01:14:27;;;;;;;6.18;3.03;;;;;;;;;;4405305;32;20088;-67
2022/08/20 01:17:01;;;;;;;8.15;3.53;;;;;;;;;;4393907;32;20070;-66
2022/08/20 01:19:40;;;;;;;6.00;3.30;;;;;;;;;;4392943;32;20472;-66
2022/08/20 01:25:00;;;;;;;5.57;3.10;;;;;;;;;;4406561;32;20073;-67
2022/08/20 01:27:28;;;;;;;5.40;2.83;;;;;;;;;;4405021;32;20092;-67
2022/08/20 01:29:54;;;;;;;4.93;2.90;;;;;;;;;;4392327;32;20541;-67
2022/08/20 01:32:21;;;;;;;6.47;3.40;;;;;;;;;;4405047;32;20185;-67
2022/08/20 01:34:47;;;;;;;9.98;3.42;;;;;;;;;;4405120;32;20524;-66
2022/08/20 01:37:14;;;;;;;5.60;3.28;;;;;;;;;;4392481;32;20149;-67
2022/08/20 01:39:41;;;;;;;7.82;3.55;;;;;;;;;;4406322;32;20065;-67
2022/08/20 01:42:14;;;;;;;5.15;2.87;;;;;;;;;;4392009;32;20081;-68
2022/08/20 01:44:43;;;;;;;6.00;3.25;;;;;;;;;;4392800;32;20152;-66
2022/08/20 01:47:22;;;;;;;5.03;3.05;;;;;;;;;;4392494;32;20149;-67
2022/08/20 01:49:52;;;;;;;6.12;3.50;;;;;;;;;;4379959;32;20069;-67
2022/08/20 01:52:46;;;;;;;6.68;3.45;;;;;;;;;;4392461;32;20061;-66
2022/08/20 01:55:13;;;;;;;5.75;3.37;;;;;;;;;;4405493;32;20096;-66
2022/08/20 01:57:40;;;;;;;7.78;3.70;;;;;;;;;;4405020;32;20097;-66
2022/08/20 02:00:09;;;;;;;6.50;3.58;;;;;;;;;;4405465;32;20161;-66
2022/08/20 02:02:36;;;;;;;6.68;3.35;;;;;;;;;;4392380;32;20542;-67
2022/08/20 02:05:04;;;;;;;6.87;3.45;;;;;;;;;;4394807;32;20073;-68
2022/08/20 02:07:31;;;;;;;7.12;3.42;;;;;;;;;;4409423;32;20104;-67
2022/08/20 02:09:58;;;;;;;6.37;3.45;;;;;;;;;;4407953;32;20082;-66
2022/08/20 02:12:24;;;;;;;5.68;3.30;;;;;;;;;;4408500;32;20144;-67
2022/08/20 02:14:53;;;;;;;6.20;3.05;;;;;;;;;;4407871;32;20085;-66
2022/08/20 02:17:22;;;;;;;8.77;3.45;;;;;;;;;;4407613;32;20077;-66
2022/08/20 02:20:01;;;;;;;7.57;3.40;;;;;;;;;;4408291;32;20097;-68
2022/08/20 02:22:39;;;;;;;6.10;3.08;;;;;;;;;;4408186;32;20194;-67
2022/08/20 02:25:08;;;;;;;5.20;2.65;;;;;;;;;;4395622;32;20153;-67
2022/08/20 02:27:37;;;;;;;6.65;3.42;;;;;;;;;;4394862;32;20519;-67
2022/08/20 02:30:07;;;;;;;5.45;2.90;;;;;;;;;;4408108;32;20089;-68
2022/08/20 02:32:34;;;;;;;5.62;2.90;;;;;;;;;;4407417;32;20079;-67
2022/08/20 02:35:03;;;;;;;5.95;2.97;;;;;;;;;;4409172;32;20094;-68
2022/08/20 02:37:30;;;;;;;10.75;3.37;;;;;;;;;;4394965;32;20151;-67
2022/08/20 02:39:57;;;;;;;5.72;3.72;;;;;;;;;;4408152;32;20085;-67
2022/08/20 02:42:25;;;;;;;6.50;3.10;;;;;;;;;;4407114;32;20116;-67
2022/08/20 02:44:52;;;;;;;6.07;3.10;;;;;;;;;;4407247;32;20162;-67
2022/08/20 02:47:19;;;;;;;5.68;2.80;;;;;;;;;;4407556;32;20522;-66
2022/08/20 02:49:46;;;;;;;5.80;2.87;;;;;;;;;;4394873;32;20508;-66
2022/08/20 02:52:12;;;;;;;5.62;3.03;;;;;;;;;;4407320;32;20085;-66
2022/08/20 02:54:39;;;;;;;5.10;2.90;;;;;;;;;;4409009;32;20080;-66
2022/08/20 02:57:12;;;;;;;5.25;3.10;;;;;;;;;;4394685;32;20149;-67
2022/08/20 02:59:39;;;;;;;5.87;2.72;;;;;;;;;;4394588;32;20097;-67
2022/08/20 03:02:06;;;;;;;6.50;3.17;;;;;;;;;;4408541;32;20251;-66
2022/08/20 03:04:32;;;;;;;4.37;2.70;;;;;;;;;;4394543;32;20112;-67
2022/08/20 03:06:59;;;;;;;4.65;3.03;;;;;;;;;;4407134;32;20515;-66
2022/08/20 03:09:26;;;;;;;5.80;3.00;;;;;;;;;;4407286;32;20083;-65
2022/08/20 03:11:53;;;;;;;8.10;3.30;;;;;;;;;;4406763;32;20096;-67
2022/08/20 03:14:19;;;;;;;6.50;2.78;;;;;;;;;;4394612;32;20089;-66
2022/08/20 03:16:46;;;;;;;5.25;2.72;;;;;;;;;;4400021;32;20519;-66
2022/08/20 03:19:13;;;;;;;4.60;2.95;;;;;;;;;;4412874;32;20508;-67
2022/08/20 03:21:39;;;;;;;7.12;3.20;;;;;;;;;;4407117;32;20071;-67
2022/08/20 03:24:06;;;;;;;5.93;3.10;;;;;;;;;;4406745;32;20099;-67
2022/08/20 03:26:33;;;;;;;5.90;3.00;;;;;;;;;;4406825;32;20080;-68
2022/08/20 03:28:59;;;;;;;6.57;2.90;;;;;;;;;;4394577;32;20238;-67
2022/08/20 03:31:26;;;;;;;6.93;3.37;;;;;;;;;;4408363;32;20144;-67
2022/08/20 03:33:53;;;;;;;4.10;3.17;;;;;;;;;;4407921;32;20088;-67
2022/08/20 03:36:22;;;;;;;5.65;2.90;;;;;;;;;;4406768;32;20070;-66
2022/08/20 03:38:49;;;;;;;6.05;3.10;;;;;;;;;;4394129;32;20077;-68
2022/08/20 03:41:16;;;;;;;7.50;2.85;;;;;;;;;;4393688;32;20592;-67
2022/08/20 03:43:43;;;;;;;8.32;3.10;;;;;;;;;;4406713;32;20089;-66
2022/08/20 03:46:09;;;;;;;7.07;3.25;;;;;;;;;;4406458;32;20168;-67
2022/08/20 03:48:36;;;;;;;4.78;2.67;;;;;;;;;;4406563;32;20449;-67
2022/08/20 03:51:03;;;;;;;9.57;3.08;;;;;;;;;;4408008;32;20071;-67
2022/08/20 03:53:30;;;;;;;9.23;3.05;;;;;;;;;;4393767;32;20085;-66
2022/08/20 03:55:59;;;;;;;7.57;2.90;;;;;;;;;;4407985;32;20146;-66
2022/08/20 03:58:27;;;;;;;4.53;3.28;;;;;;;;;;4406230;32;20517;-67
2022/08/20 04:00:55;;;;;;;8.40;3.62;;;;;;;;;;4406208;32;20078;-67
2022/08/20 04:03:22;;;;;;;7.35;3.30;;;;;;;;;;4381012;32;20073;-66
2022/08/20 04:05:50;;;;;;;7.82;3.37;;;;;;;;;;4406397;32;20069;-67
2022/08/20 04:08:28;;;;;;;5.87;2.92;;;;;;;;;;4394201;32;20431;-67
2022/08/20 04:10:56;;;;;;;6.47;3.00;;;;;;;;;;4393918;32;20463;-68
2022/08/20 04:13:24;;;;;;;6.55;3.30;;;;;;;;;;4393804;32;20168;-66
2022/08/20 04:15:54;;;;;;;6.22;3.12;;;;;;;;;;4407414;32;20089;-66
2022/08/20 04:18:23;;;;;;;5.60;2.75;;;;;;;;;;4394453;32;20069;-66
2022/08/20 04:20:51;;;;;;;7.32;2.80;;;;;;;;;;4407294;32;20161;-66
2022/08/20 04:23:18;;;;;;;5.62;2.90;;;;;;;;;;4406420;32;20153;-66
2022/08/20 04:25:45;;;;;;;10.68;3.28;;;;;;;;;;4393210;32;20077;-67
2022/08/20 04:28:25;;;;;;;10.15;3.12;;;;;;;;;;4406033;32;20085;-67
2022/08/20 04:30:56;;;;;;;6.03;3.10;;;;;;;;;;4394307;32;20081;-67
2022/08/20 04:33:25;;;;;;;6.35;3.00;;;;;;;;;;4406110;32;20120;-66
2022/08/20 04:35:52;;;;;;;10.70;3.00;;;;;;;;;;4405931;32;20520;-66
2022/08/20 04:38:20;;;;;;;4.72;2.47;;;;;;;;;;4393283;32;20096;-67
2022/08/20 04:40:54;;;;;;;4.35;2.33;;;;;;;;;;4393194;32;20077;-67
2022/08/20 04:43:22;;;;;;;6.95;2.47;;;;;;;;;;4405276;32;20092;-68
2022/08/20 04:45:50;;;;;;;4.93;2.45;;;;;;;;;;4406135;32;20078;-67
2022/08/20 04:48:18;;;;;;;8.38;3.03;;;;;;;;;;4405565;32;20081;-66
2022/08/20 04:50:45;;;;;;;6.35;2.65;;;;;;;;;;4405766;32;20084;-67
2022/08/20 04:53:16;;;;;;;7.37;3.00;;;;;;;;;;4406984;32;20145;-67
2022/08/20 04:55:44;;;;;;;3.85;2.65;;;;;;;;;;4405991;32;20177;-67
2022/08/20 04:58:16;;;;;;;5.80;2.72;;;;;;;;;;4406900;32;20077;-67
2022/08/20 05:00:51;;;;;;;8.75;2.65;;;;;;;;;;4406974;32;20081;-68
2022/08/20 05:03:18;;;;;;;4.45;2.60;;;;;;;;;;4405407;32;20066;-67
2022/08/20 05:05:46;;;;;;;9.02;2.53;;;;;;;;;;4405244;32;20077;-67
2022/08/20 05:08:13;;;;;;;4.10;2.60;;;;;;;;;;4405596;32;20073;-66
2022/08/20 05:10:41;;;;;;;4.15;2.65;;;;;;;;;;4393224;32;20077;-68
2022/08/20 05:13:08;;;;;;;5.43;2.83;;;;;;;;;;4393231;32;20086;-66
2022/08/20 05:15:36;;;;;;;6.28;2.90;;;;;;;;;;4392646;32;20488;-66
2022/08/20 05:18:04;;;;;;;6.32;2.45;;;;;;;;;;4405473;32;20084;-67
2022/08/20 05:20:37;;;;;;;4.72;2.60;;;;;;;;;;4405182;32;20501;-67
2022/08/20 05:23:05;;;;;;;4.20;2.55;;;;;;;;;;4404835;32;20081;-68
2022/08/20 05:25:32;;;;;;;7.80;2.75;;;;;;;;;;4405683;32;20157;-68
2022/08/20 05:28:08;;;;;;;6.70;2.62;;;;;;;;;;4392685;32;20176;-68
2022/08/20 05:30:36;;;;;;;4.22;2.53;;;;;;;;;;4395537;32;20503;-68
2022/08/20 05:33:06;;;;;;;6.32;2.87;;;;;;;;;;4407844;32;20081;-67
2022/08/20 05:35:37;;;;;;;6.37;2.55;;;;;;;;;;4407314;32;20164;-68
2022/08/20 05:38:05;;;;;;;6.68;2.85;;;;;;;;;;4406583;32;20082;-67
2022/08/20 05:40:32;;;;;;;3.97;2.53;;;;;;;;;;4393327;32;20082;-68
2022/08/20 05:42:59;;;;;;;6.70;3.22;;;;;;;;;;4405628;32;20181;-67
2022/08/20 05:45:25;;;;;;;7.70;2.80;;;;;;;;;;4405027;32;20089;-67
2022/08/20 05:47:53;;;;;;;5.87;3.03;;;;;;;;;;4392402;32;20157;-67
2022/08/20 05:50:20;;;;;;;6.70;3.03;;;;;;;;;;4392439;32;20065;-68
2022/08/20 05:52:46;;;;;;;5.60;2.85;;;;;;;;;;4409798;32;20591;-66
2022/08/20 05:55:13;;;;;;;6.35;2.60;;;;;;;;;;4412400;32;20150;-67
2022/08/20 05:57:40;;;;;;;4.72;2.50;;;;;;;;;;4392590;32;20078;-67
2022/08/20 06:00:11;;;;;;;5.95;2.70;;;;;;;;;;4392800;32;20176;-67
2022/08/20 06:05:23;;;;;;;5.50;2.20;;;;;;;;;;4406897;32;20070;-67
2022/08/20 06:07:50;;;;;;;6.90;3.30;;;;;;;;;;4392312;32;20164;-66
2022/08/20 06:10:17;;;;;;;4.85;2.60;;;;;;;;;;4404885;32;20077;-67
2022/08/20 06:12:44;;;;;;;5.75;2.50;;;;;;;;;;4392325;32;20162;-66
2022/08/20 06:15:11;;;;;;;6.50;2.45;;;;;;;;;;4406120;32;20073;-67
2022/08/20 06:17:39;;;;;;;7.78;3.72;;;;;;;;;;4379516;32;20089;-67
2022/08/20 06:20:07;;;;;;;6.20;2.58;;;;;;;;;;4406022;32;20142;-66
2022/08/20 06:22:34;;;;;;;5.03;2.92;;;;;;;;;;4392056;32;20084;-66
2022/08/20 06:25:02;;;;;;;6.78;3.05;;;;;;;;;;4404593;32;20097;-67
2022/08/20 06:27:28;;;;;;;6.05;2.47;;;;;;;;;;4391876;32;20082;-66
2022/08/20 06:29:55;;;;;;;2.67;2.15;;;;;;;;;;4404900;32;20070;-67
2022/08/20 06:32:23;;;;;;;5.20;2.45;;;;;;;;;;4392226;32;20168;-65
2022/08/20 06:34:50;;;;;;;4.72;2.42;;;;;;;;;;4379665;32;20516;-66
2022/08/20 06:37:25;;;;;;;5.82;3.10;;;;;;;;;;4392450;32;20165;-66
2022/08/20 06:39:52;;;;;;;4.35;2.50;;;;;;;;;;4392040;32;20086;-65
2022/08/20 06:42:19;;;;;;;6.45;2.72;;;;;;;;;;4391632;32;20100;-66
2022/08/20 06:44:49;;;;;;;4.00;2.45;;;;;;;;;;4392716;32;20150;-66
2022/08/20 06:47:18;;;;;;;5.20;2.12;;;;;;;;;;4405185;32;20077;-66
2022/08/20 06:49:46;;;;;;;4.85;2.10;;;;;;;;;;4393685;32;20081;-66
2022/08/20 06:52:15;;;;;;;5.18;2.62;;;;;;;;;;4408944;32;20085;-66
2022/08/20 06:54:43;;;;;;;4.85;1.92;;;;;;;;;;4395081;32;20144;-68
2022/08/20 06:57:10;;;;;;;3.40;1.87;;;;;;;;;;4407400;32;20081;-66
2022/08/20 06:59:37;;;;;;;3.85;2.58;;;;;;;;;;4408714;32;20103;-65
2022/08/20 07:02:04;;;;;;;4.70;2.50;;;;;;;;;;4406979;32;20580;-66
2022/08/20 07:04:31;;;;;;;4.57;2.40;;;;;;;;;;4408431;32;20145;-66
2022/08/20 07:06:58;;;;;;;3.40;2.62;;;;;;;;;;4382329;32;20164;-67
2022/08/20 07:09:27;;;;;;;5.00;2.30;;;;;;;;;;4394151;32;20090;-67
2022/08/20 07:11:53;;;;;;;6.43;3.25;;;;;;;;;;4394386;32;20074;-65
2022/08/20 07:14:21;;;;;;;5.70;3.00;;;;;;;;;;4406967;32;20065;-66
2022/08/20 07:16:48;;;;;;;5.78;2.15;;;;;;;;;;4394964;32;20151;-68
2022/08/20 07:19:15;;;;;;;8.88;2.60;;;;;;;;;;4394637;32;20093;-67
2022/08/20 07:21:41;;;;;;;5.37;2.50;;;;;;;;;;4408898;32;20073;-67
2022/08/20 07:24:08;;;;;;;4.62;2.28;;;;;;;;;;4406954;32;20094;-66
2022/08/20 07:26:35;;;;;;;3.53;2.10;;;;;;;;;;4395195;32;20100;-68
2022/08/20 07:29:02;;;;;;;4.32;2.20;;;;;;;;;;4394231;32;20082;-66
2022/08/20 07:34:14;;;;;;;4.60;2.27;;;;;;;;;;4406577;32;20084;-67
2022/08/20 07:36:42;;;;;;;6.22;2.12;;;;;;;;;;4381939;32;20069;-67
2022/08/20 07:39:09;;;;;;;7.55;3.03;;;;;;;;;;4381913;32;20484;-66
2022/08/20 07:41:35;;;;;;;4.03;2.60;;;;;;;;;;4381733;32;20074;-65
2022/08/20 07:44:03;;;;;;;5.20;2.40;;;;;;;;;;4394447;32;20090;-66
2022/08/20 07:46:30;;;;;;;3.12;2.03;;;;;;;;;;4406359;32;20536;-66
2022/08/20 07:48:57;;;;;;;4.43;2.20;;;;;;;;;;4406453;32;20527;-66
2022/08/20 07:51:23;;;;;;;9.02;3.30;;;;;;;;;;4394107;32;20155;-65
2022/08/20 07:53:51;;;;;;;7.85;2.67;;;;;;;;;;4395582;32;20086;-66
2022/08/20 07:56:22;;;;;;;3.50;2.12;;;;;;;;;;4411586;32;20089;-66
2022/08/20 07:58:54;;;;;;;8.75;2.87;;;;;;;;;;4408213;32;20086;-66
2022/08/20 08:01:28;;;;;;;8.13;3.00;;;;;;;;;;4406402;32;20077;-67
2022/08/20 08:03:56;;;;;;;3.75;2.58;;;;;;;;;;4382106;32;20093;-67
2022/08/20 08:06:23;;;;;;;4.10;2.47;;;;;;;;;;4394236;32;20216;-66
2022/08/20 08:08:51;;;;;;;6.20;3.05;;;;;;;;;;4406406;32;20596;-66
2022/08/20 08:11:18;;;;;;;5.87;3.47;;;;;;;;;;4406237;32;20512;-67
2022/08/20 08:13:45;;;;;;;4.97;2.90;;;;;;;;;;4406713;32;20082;-67
2022/08/20 08:16:12;;;;;;;6.37;2.75;;;;;;;;;;4393189;32;20093;-66
2022/08/20 08:18:48;;;;;;;6.35;2.85;;;;;;;;;;4405917;32;20074;-67
2022/08/20 08:21:17;;;;;;;4.32;2.47;;;;;;;;;;4407622;32;20089;-67
2022/08/20 08:23:44;;;;;;;8.07;3.25;;;;;;;;;;4406018;32;20084;-66
2022/08/20 08:26:13;;;;;;;4.82;3.00;;;;;;;;;;4406484;32;20065;-67
2022/08/20 08:28:40;;;;;;;4.28;2.72;;;;;;;;;;4393411;32;20081;-66
2022/08/20 08:31:07;;;;;;;5.45;3.12;;;;;;;;;;4393831;32;20168;-66
2022/08/20 08:33:34;;;;;;;4.05;2.47;;;;;;;;;;4405692;32;20142;-66
2022/08/20 08:36:02;;;;;;;3.53;2.50;;;;;;;;;;4393608;32;20188;-67
2022/08/20 08:38:30;;;;;;;6.78;2.47;;;;;;;;;;4393771;32;20081;-66
2022/08/20 08:40:59;;;;;;;4.65;2.80;;;;;;;;;;4393249;32;20088;-67
2022/08/20 08:43:27;;;;;;;5.25;2.62;;;;;;;;;;4380192;32;20069;-66
2022/08/20 08:46:05;;;;;;;6.72;3.30;;;;;;;;;;4405557;32;20183;-66
2022/08/20 08:48:35;;;;;;;4.50;2.85;;;;;;;;;;4406022;32;20242;-66
2022/08/20 08:51:06;;;;;;;5.55;2.97;;;;;;;;;;4405623;32;20084;-67
2022/08/20 08:53:39;;;;;;;5.35;2.55;;;;;;;;;;4392966;32;20069;-68
2022/08/20 08:56:06;;;;;;;5.22;2.92;;;;;;;;;;4393736;32;20073;-67
2022/08/20 08:58:34;;;;;;;3.95;2.53;;;;;;;;;;4405425;32;20153;-67
2022/08/20 09:01:10;;;;;;;8.43;3.22;;;;;;;;;;4405814;32;20066;-67
2022/08/20 09:03:38;;;;;;;6.50;2.75;;;;;;;;;;4405289;32;20456;-67
2022/08/20 09:06:06;;;;;;;5.25;2.70;;;;;;;;;;4392739;32;20085;-68
2022/08/20 09:08:49;;;;;;;5.15;2.25;;;;;;;;;;4405557;32;20073;-67
2022/08/20 09:11:17;;;;;;;4.97;2.58;;;;;;;;;;4405443;32;20077;-67
2022/08/20 09:13:44;;;;;;;4.30;2.83;;;;;;;;;;4392338;32;20579;-67
2022/08/20 09:16:12;;;;;;;5.90;3.10;;;;;;;;;;4392593;32;20069;-66
2022/08/20 09:18:39;;;;;;;5.30;3.00;;;;;;;;;;4405191;32;20081;-67
2022/08/20 09:21:06;;;;;;;5.82;2.72;;;;;;;;;;4392789;32;20243;-67
2022/08/20 09:23:33;;;;;;;6.25;3.05;;;;;;;;;;4404927;32;20061;-67
2022/08/20 09:26:00;;;;;;;4.43;2.55;;;;;;;;;;4405602;32;20169;-67
2022/08/20 09:28:27;;;;;;;5.78;2.78;;;;;;;;;;4380180;32;20518;-67
2022/08/20 09:30:54;;;;;;;5.57;2.62;;;;;;;;;;4406809;32;20184;-68
2022/08/20 09:33:21;;;;;;;3.97;2.42;;;;;;;;;;4406926;32;20086;-67
2022/08/20 09:35:47;;;;;;;5.03;2.65;;;;;;;;;;4393166;32;20103;-67
2022/08/20 09:38:14;;;;;;;6.93;2.90;;;;;;;;;;4405333;32;20168;-67
2022/08/20 09:40:41;;;;;;;5.32;2.80;;;;;;;;;;4392946;32;20081;-66
2022/08/20 09:43:08;;;;;;;4.03;2.60;;;;;;;;;;4406274;32;20094;-67
2022/08/20 09:45:35;;;;;;;5.93;3.47;;;;;;;;;;4404781;32;20069;-67
2022/08/20 09:48:02;;;;;;;8.52;3.35;;;;;;;;;;4379792;32;20157;-67
2022/08/20 09:50:31;;;;;;;6.93;2.95;;;;;;;;;;4392442;32;20077;-67
2022/08/20 09:52:59;;;;;;;7.00;3.17;;;;;;;;;;4392160;32;20097;-67
2022/08/20 09:55:31;;;;;;;5.20;3.22;;;;;;;;;;4406460;32;20069;-68
2022/08/20 09:57:58;;;;;;;5.95;3.10;;;;;;;;;;4406435;32;20081;-66
2022/08/20 10:00:25;;;;;;;4.95;2.50;;;;;;;;;;4406519;32;20149;-67
2022/08/20 10:02:52;;;;;;;5.68;3.50;;;;;;;;;;4404904;32;20156;-67
2022/08/20 10:05:18;;;;;;;5.87;2.72;;;;;;;;;;4404661;32;20149;-67
2022/08/20 10:07:45;;;;;;;5.95;3.08;;;;;;;;;;4392363;32;20146;-67
2022/08/20 10:10:13;;;;;;;4.80;2.75;;;;;;;;;;4405993;32;20081;-67
2022/08/20 10:12:40;;;;;;;13.23;4.32;;;;;;;;;;4405036;32;20564;-68
2022/08/20 10:15:08;;;;;;;3.62;2.72;;;;;;;;;;4404792;32;20157;-68
2022/08/20 10:17:40;;;;;;;4.20;2.42;;;;;;;;;;4404940;32;20170;-67
2022/08/20 10:20:09;;;;;;;6.30;2.80;;;;;;;;;;4393055;32;20222;-67
2022/08/20 10:22:36;;;;;;;8.40;3.17;;;;;;;;;;4379506;32;20508;-67
2022/08/20 10:25:04;;;;;;;5.60;3.22;;;;;;;;;;4406021;32;20095;-67
2022/08/20 10:27:30;;;;;;;6.78;3.03;;;;;;;;;;4382704;32;20085;-67
2022/08/20 10:29:57;;;;;;;6.35;3.30;;;;;;;;;;4407470;32;20464;-67
2022/08/20 10:32:24;;;;;;;10.07;3.67;;;;;;;;;;4382237;32;20472;-66
2022/08/20 10:34:51;;;;;;;6.15;2.97;;;;;;;;;;4409012;32;20092;-67
2022/08/20 10:37:20;;;;;;;6.18;3.80;;;;;;;;;;4408247;32;20094;-67
2022/08/20 10:39:47;;;;;;;4.75;2.72;;;;;;;;;;4407341;32;20089;-67
2022/08/20 10:42:14;;;;;;;4.95;2.90;;;;;;;;;;4408659;32;20078;-67
2022/08/20 10:44:40;;;;;;;5.40;2.97;;;;;;;;;;4407465;32;20099;-67
2022/08/20 10:47:31;;;;;;;4.28;2.95;;;;;;;;;;4394834;32;20163;-67
2022/08/20 10:49:59;;;;;;;7.60;4.47;;;;;;;;;;4407339;32;20153;-67
2022/08/20 10:52:26;;;;;;;7.55;4.70;;;;;;;;;;4394976;32;20139;-68
2022/08/20 10:54:53;;;;;;;10.00;4.32;;;;;;;;;;4407308;32;20556;-66
2022/08/20 10:57:23;;;;;;;12.60;6.35;;;;;;;;;;4407235;32;20597;-68
2022/08/20 10:59:51;;;;;;;7.80;4.65;;;;;;;;;;4407517;32;20092;-68
2022/08/20 11:02:19;;;;;;;12.13;6.80;;;;;;;;;;4381937;32;20103;-67
2022/08/20 11:04:46;;;;;;;12.18;7.68;;;;;;;;;;4397433;32;20072;-68
2022/08/20 11:07:28;;;;;;;17.00;8.48;;;;;;;;;;4407995;32;20476;-67
2022/08/20 11:09:55;;;;;;;7.95;5.10;;;;;;;;;;4409060;32;20095;-68
2022/08/20 11:12:22;;;;;;;9.23;4.55;;;;;;;;;;4382439;32;20185;-67
2022/08/20 11:14:50;;;;;;;9.50;4.70;;;;;;;;;;4407767;32;20450;-67
2022/08/20 11:17:26;;;;;;;7.00;3.95;;;;;;;;;;4393958;32;20503;-68
2022/08/20 11:19:54;;;;;;;7.25;4.45;;;;;;;;;;4394517;32;20155;-68
2022/08/20 11:22:21;;;;;;;10.45;7.37;;;;;;;;;;4408661;32;20152;-67
2022/08/20 11:24:48;;;;;;;8.27;5.32;;;;;;;;;;4406640;32;20463;-67
2022/08/20 11:27:22;;;;;;;12.73;7.45;;;;;;;;;;4408377;32;20124;-67
2022/08/20 11:29:48;;;;;;;12.55;8.18;;;;;;;;;;4406562;32;20503;-68
2022/08/20 11:32:15;;;;;;;6.30;3.67;;;;;;;;;;4408245;32;20066;-67
2022/08/20 11:34:42;;;;;;;6.25;3.00;;;;;;;;;;4406722;32;20160;-68
2022/08/20 11:37:09;;;;;;;7.05;4.57;;;;;;;;;;4406294;32;20157;-67
2022/08/20 11:39:36;;;;;;;16.02;8.98;;;;;;;;;;4394189;32;20267;-67
2022/08/20 11:42:02;;;;;;;30.98;21.20;;;;;;;;;;4393679;32;20149;-67
2022/08/20 11:44:29;;;;;;;21.87;13.55;;;;;;;;;;4379048;32;20496;-68
2022/08/20 11:47:01;;;;;;;22.75;15.35;;;;;;;;;;4391530;32;20073;-68
2022/08/20 11:49:35;;;;;;;11.32;8.77;;;;;;;;;;4366799;32;20100;-67
2022/08/20 11:52:03;;;;;;;9.60;5.35;;;;;;;;;;4392639;32;20150;-69
2022/08/20 11:54:31;;;;;;;7.43;4.10;;;;;;;;;;4391341;32;20084;-68
2022/08/20 11:56:58;;;;;;;9.10;5.18;;;;;;;;;;4391138;32;20153;-68
2022/08/20 11:59:26;;;;;;;8.55;5.28;;;;;;;;;;4391358;32;20070;-67
2022/08/20 12:01:54;;;;;;;7.75;4.45;;;;;;;;;;4391016;32;20057;-68
2022/08/20 12:04:21;;;;;;;13.38;8.40;;;;;;;;;;4390766;32;20573;-68
2022/08/20 12:06:47;;;;;;;11.55;6.78;;;;;;;;;;4391011;32;20150;-67
2022/08/20 12:09:14;;;;;;;14.85;7.35;;;;;;;;;;4378655;32;20157;-68
2022/08/20 12:11:41;;;;;;;7.43;4.12;;;;;;;;;;4379090;32;20074;-68
2022/08/20 12:14:08;;;;;;;5.93;3.58;;;;;;;;;;4378756;32;20166;-67
2022/08/20 12:16:34;;;;;;;6.90;4.12;;;;;;;;;;4378814;32;20085;-67
2022/08/20 12:19:01;;;;;;;7.95;4.43;;;;;;;;;;4392839;32;20516;-67
2022/08/20 12:21:27;;;;;;;7.03;4.43;;;;;;;;;;4378467;32;20098;-66
2022/08/20 12:23:54;;;;;;;5.65;3.08;;;;;;;;;;4378703;32;20096;-68
2022/08/20 12:26:21;;;;;;;5.25;2.80;;;;;;;;;;4378208;32;20086;-67
2022/08/20 12:28:47;;;;;;;5.10;2.95;;;;;;;;;;4392189;32;20093;-68
2022/08/20 12:31:14;;;;;;;5.25;2.60;;;;;;;;;;4390683;32;20128;-67
2022/08/20 12:33:41;;;;;;;3.90;2.80;;;;;;;;;;4390556;32;20153;-67
2022/08/20 12:36:07;;;;;;;4.62;2.72;;;;;;;;;;4366103;32;20158;-67
2022/08/20 12:38:34;;;;;;;5.07;2.42;;;;;;;;;;4390702;32;20102;-68
2022/08/20 12:41:01;;;;;;;5.35;3.12;;;;;;;;;;4392315;32;20074;-68
2022/08/20 12:43:28;;;;;;;5.72;3.03;;;;;;;;;;4391979;32;20141;-67
2022/08/20 12:45:54;;;;;;;5.68;3.05;;;;;;;;;;4378772;32;20078;-68
2022/08/20 12:48:21;;;;;;;5.30;3.08;;;;;;;;;;4377435;32;20162;-67
2022/08/20 12:50:48;;;;;;;3.95;2.60;;;;;;;;;;4390562;32;20089;-67
2022/08/20 12:53:15;;;;;;;4.82;2.40;;;;;;;;;;4378176;32;20098;-66
2022/08/20 12:55:42;;;;;;;2.90;2.35;;;;;;;;;;4391960;32;20100;-67
2022/08/20 12:58:09;;;;;;;6.32;2.78;;;;;;;;;;4390458;32;20096;-68
2022/08/20 13:00:40;;;;;;;5.45;2.70;;;;;;;;;;4391581;32;20086;-67
2022/08/20 13:03:07;;;;;;;5.85;2.67;;;;;;;;;;4378441;32;20069;-67
2022/08/20 13:05:35;;;;;;;5.55;2.80;;;;;;;;;;4377625;32;20138;-68
2022/08/20 13:08:04;;;;;;;4.95;3.00;;;;;;;;;;4390139;32;20062;-68
2022/08/20 13:10:33;;;;;;;5.65;2.80;;;;;;;;;;4390717;32;20078;-67
2022/08/20 13:13:03;;;;;;;5.05;2.70;;;;;;;;;;4377582;32;20077;-68
2022/08/20 13:15:31;;;;;;;4.80;2.45;;;;;;;;;;4377892;32;20069;-67
2022/08/20 13:17:59;;;;;;;5.47;2.90;;;;;;;;;;4390653;32;20564;-68
2022/08/20 13:20:27;;;;;;;8.73;3.75;;;;;;;;;;4377744;32;20088;-68
2022/08/20 13:22:55;;;;;;;5.53;2.70;;;;;;;;;;4390147;32;20074;-67
2022/08/20 13:25:22;;;;;;;5.20;3.30;;;;;;;;;;4390160;32;20166;-67
2022/08/20 13:27:49;;;;;;;6.55;2.95;;;;;;;;;;4391629;32;20153;-67
2022/08/20 13:30:18;;;;;;;6.03;2.95;;;;;;;;;;4390136;32;20595;-67
2022/08/20 13:32:45;;;;;;;8.95;3.00;;;;;;;;;;4390019;32;20174;-68
2022/08/20 13:35:13;;;;;;;3.75;2.55;;;;;;;;;;4377473;32;20089;-67
2022/08/20 13:37:40;;;;;;;11.20;3.08;;;;;;;;;;4377360;32;20157;-68
2022/08/20 13:40:08;;;;;;;5.75;2.60;;;;;;;;;;4389797;32;20070;-68
2022/08/20 13:42:35;;;;;;;5.15;2.65;;;;;;;;;;4389818;32;20089;-67
2022/08/20 13:45:02;;;;;;;5.18;2.95;;;;;;;;;;4391523;32;20076;-69
2022/08/20 13:47:33;;;;;;;4.18;2.70;;;;;;;;;;4382162;32;20504;-68
2022/08/20 13:50:22;;;;;;;4.95;2.60;;;;;;;;;;4391299;32;20077;-67
2022/08/20 13:52:49;;;;;;;4.47;2.40;;;;;;;;;;4377788;32;20074;-68
2022/08/20 13:55:17;;;;;;;4.03;2.67;;;;;;;;;;4390008;32;20145;-67
2022/08/20 13:57:45;;;;;;;4.95;2.97;;;;;;;;;;4389373;32;20073;-67
2022/08/20 14:00:15;;;;;;;6.20;4.00;;;;;;;;;;4380148;32;20059;-67
2022/08/20 14:02:42;;;;;;;6.25;2.95;;;;;;;;;;4392988;32;20089;-68
2022/08/20 14:05:10;;;;;;;5.18;2.72;;;;;;;;;;4380748;32;20100;-67
2022/08/20 14:07:37;;;;;;;4.50;2.70;;;;;;;;;;4367766;32;20098;-68
2022/08/20 14:10:07;;;;;;;3.90;2.35;;;;;;;;;;4394099;32;20085;-67
2022/08/20 14:12:34;;;;;;;4.05;2.45;;;;;;;;;;4380790;32;20077;-66
2022/08/20 14:15:00;;;;;;;4.53;2.80;;;;;;;;;;4394133;32;20085;-67
2022/08/20 14:17:34;;;;;;;6.37;3.00;;;;;;;;;;4392734;32;20074;-67
2022/08/20 14:20:10;;;;;;;3.50;2.53;;;;;;;;;;4394182;32;20149;-68
2022/08/20 14:22:37;;;;;;;4.87;3.17;;;;;;;;;;4392573;32;20170;-68
2022/08/20 14:25:05;;;;;;;4.90;2.45;;;;;;;;;;4392909;32;20070;-68
2022/08/20 14:27:32;;;;;;;4.93;2.72;;;;;;;;;;4394380;32;20081;-67
2022/08/20 14:30:00;;;;;;;4.50;2.90;;;;;;;;;;4392530;32;20066;-67
2022/08/20 14:32:27;;;;;;;5.22;3.20;;;;;;;;;;4379662;32;20078;-67
2022/08/20 14:34:55;;;;;;;6.07;3.20;;;;;;;;;;4380601;32;20090;-67
2022/08/20 14:37:32;;;;;;;7.45;3.40;;;;;;;;;;4393909;32;20468;-68
2022/08/20 14:40:00;;;;;;;4.72;2.85;;;;;;;;;;4367446;32;20154;-67
2022/08/20 14:42:28;;;;;;;5.53;3.35;;;;;;;;;;4379605;32;20066;-67
2022/08/20 14:45:01;;;;;;;5.68;2.92;;;;;;;;;;4380190;32;20073;-67
2022/08/20 14:47:34;;;;;;;7.35;3.55;;;;;;;;;;4379859;32;20100;-67
2022/08/20 14:50:04;;;;;;;8.90;3.17;;;;;;;;;;4392310;32;20090;-67
2022/08/20 14:52:35;;;;;;;7.07;3.00;;;;;;;;;;4393663;32;20096;-67
2022/08/20 14:55:03;;;;;;;4.28;2.70;;;;;;;;;;4393551;32;20170;-67
2022/08/20 14:57:30;;;;;;;8.43;3.33;;;;;;;;;;4393793;32;20078;-67
2022/08/20 14:59:56;;;;;;;5.20;3.25;;;;;;;;;;4392016;32;20108;-66